Startpagina
METAR-TAF:

METAR-TAF

Vliegvelden :

Santa Marta, Colombia

breedte: 11-08N, lengte: 074-14W, hoogte: 4 m

Actueel weer

Dit bericht is 3 uur en het 44 minuten geleden gemaakt, om 05:00 UTC
Weinig wind
Temperatuur 31°C
Vochtigheid 66%
Druk 1009 hPa
Zicht 10 km of meer
Weinig wolken op 2000 ft

METAR: SKSM 190500Z 00000KT 9999 FEW020 31/24 A2980

Tijdstip: 03:44 (08:44 UTC)


TAF: ontbreekt

Waarnemingen en weersverwachtingen van meer dan 4000 vliegvelden (METAR en TAF).

De beschikbare stations zijn de gele en rode punten op de kaart.

Ga met uw muis naar het station om de naam te zien.

Klik dan om waarnemingen en weersverwachtingen te zien.

kaart wijzigen: klik op de groene knoppen met een zwart kruis om in te zoomen, op de groene knop met een streepje om uit te zoomen of op de groene pijlen voor aangrenzende kaarten.


METAR-TAF: